sensor_id;sensor_type;location;lat;lon;timestamp;temperature;humidity
39519;DHT22;25200;53.394;10.414;2023-03-15T00:01:56;3.70;88.80
39519;DHT22;25200;53.394;10.414;2023-03-15T00:04:22;3.60;88.80
39519;DHT22;25200;53.394;10.414;2023-03-15T00:06:49;3.60;88.80
39519;DHT22;25200;53.394;10.414;2023-03-15T00:09:15;3.70;88.90
39519;DHT22;25200;53.394;10.414;2023-03-15T00:11:41;3.60;88.80
39519;DHT22;25200;53.394;10.414;2023-03-15T00:14:06;3.60;88.80
39519;DHT22;25200;53.394;10.414;2023-03-15T00:16:32;3.60;88.90
39519;DHT22;25200;53.394;10.414;2023-03-15T00:18:58;3.60;88.90
39519;DHT22;25200;53.394;10.414;2023-03-15T00:21:24;3.50;88.80
39519;DHT22;25200;53.394;10.414;2023-03-15T00:23:50;3.50;88.90
39519;DHT22;25200;53.394;10.414;2023-03-15T00:26:16;3.50;88.80
39519;DHT22;25200;53.394;10.414;2023-03-15T00:28:42;3.50;88.80
39519;DHT22;25200;53.394;10.414;2023-03-15T00:31:16;3.50;88.90
39519;DHT22;25200;53.394;10.414;2023-03-15T00:33:43;3.50;89.00
39519;DHT22;25200;53.394;10.414;2023-03-15T00:36:09;3.50;88.90
39519;DHT22;25200;53.394;10.414;2023-03-15T00:38:37;3.50;89.00
39519;DHT22;25200;53.394;10.414;2023-03-15T00:41:08;3.50;89.50
39519;DHT22;25200;53.394;10.414;2023-03-15T00:43:34;3.50;89.00
39519;DHT22;25200;53.394;10.414;2023-03-15T00:46:00;3.50;89.00
39519;DHT22;25200;53.394;10.414;2023-03-15T00:48:26;3.50;89.00
39519;DHT22;25200;53.394;10.414;2023-03-15T00:51:11;3.50;89.00
39519;DHT22;25200;53.394;10.414;2023-03-15T00:53:39;3.50;89.00
39519;DHT22;25200;53.394;10.414;2023-03-15T00:56:11;3.40;89.00
39519;DHT22;25200;53.394;10.414;2023-03-15T00:58:38;3.40;89.10
39519;DHT22;25200;53.394;10.414;2023-03-15T01:01:06;3.40;89.00
39519;DHT22;25200;53.394;10.414;2023-03-15T01:03:32;3.40;89.10
39519;DHT22;25200;53.394;10.414;2023-03-15T01:05:57;3.40;89.10
39519;DHT22;25200;53.394;10.414;2023-03-15T01:08:23;3.40;89.10
39519;DHT22;25200;53.394;10.414;2023-03-15T01:10:49;3.40;89.20
39519;DHT22;25200;53.394;10.414;2023-03-15T01:13:14;3.40;89.20
39519;DHT22;25200;53.394;10.414;2023-03-15T01:15:45;3.40;89.10
39519;DHT22;25200;53.394;10.414;2023-03-15T01:18:11;3.40;89.10
39519;DHT22;25200;53.394;10.414;2023-03-15T01:20:36;3.40;89.20
39519;DHT22;25200;53.394;10.414;2023-03-15T01:23:02;3.30;89.10
39519;DHT22;25200;53.394;10.414;2023-03-15T01:25:27;3.30;89.10
39519;DHT22;25200;53.394;10.414;2023-03-15T01:27:53;3.30;89.00
39519;DHT22;25200;53.394;10.414;2023-03-15T01:30:19;3.30;89.10
39519;DHT22;25200;53.394;10.414;2023-03-15T01:32:44;3.20;89.00
39519;DHT22;25200;53.394;10.414;2023-03-15T01:35:10;3.20;89.10
39519;DHT22;25200;53.394;10.414;2023-03-15T01:37:36;3.20;89.20
39519;DHT22;25200;53.394;10.414;2023-03-15T01:40:01;3.20;89.10
39519;DHT22;25200;53.394;10.414;2023-03-15T01:42:31;3.10;89.00
39519;DHT22;25200;53.394;10.414;2023-03-15T01:44:58;3.10;89.10
39519;DHT22;25200;53.394;10.414;2023-03-15T01:47:27;3.10;89.10
39519;DHT22;25200;53.394;10.414;2023-03-15T01:50:13;3.10;89.20
39519;DHT22;25200;53.394;10.414;2023-03-15T01:52:40;3.00;89.10
39519;DHT22;25200;53.394;10.414;2023-03-15T01:55:14;3.00;89.20
39519;DHT22;25200;53.394;10.414;2023-03-15T01:57:45;3.00;89.20
39519;DHT22;25200;53.394;10.414;2023-03-15T02:00:16;3.00;89.20
39519;DHT22;25200;53.394;10.414;2023-03-15T02:05:20;3.00;89.30
39519;DHT22;25200;53.394;10.414;2023-03-15T02:07:49;3.00;89.30
39519;DHT22;25200;53.394;10.414;2023-03-15T02:10:26;3.00;89.30
39519;DHT22;25200;53.394;10.414;2023-03-15T02:12:55;3.00;89.40
39519;DHT22;25200;53.394;10.414;2023-03-15T02:15:21;3.00;89.30
39519;DHT22;25200;53.394;10.414;2023-03-15T02:17:47;3.10;89.50
39519;DHT22;25200;53.394;10.414;2023-03-15T02:27:55;3.20;89.50
39519;DHT22;25200;53.394;10.414;2023-03-15T02:30:21;3.20;89.60
39519;DHT22;25200;53.394;10.414;2023-03-15T02:32:48;3.20;89.60
39519;DHT22;25200;53.394;10.414;2023-03-15T02:35:22;3.20;89.70
39519;DHT22;25200;53.394;10.414;2023-03-15T02:37:48;3.20;89.60
39519;DHT22;25200;53.394;10.414;2023-03-15T02:40:18;3.20;89.60
39519;DHT22;25200;53.394;10.414;2023-03-15T02:42:45;3.20;89.60
39519;DHT22;25200;53.394;10.414;2023-03-15T02:45:11;3.20;89.60
39519;DHT22;25200;53.394;10.414;2023-03-15T02:47:37;3.20;89.70
39519;DHT22;25200;53.394;10.414;2023-03-15T02:50:04;3.20;89.60
39519;DHT22;25200;53.394;10.414;2023-03-15T02:52:32;3.20;89.60
39519;DHT22;25200;53.394;10.414;2023-03-15T02:54:57;3.20;89.70
39519;DHT22;25200;53.394;10.414;2023-03-15T02:57:23;3.20;89.60
39519;DHT22;25200;53.394;10.414;2023-03-15T02:59:48;3.20;89.70
39519;DHT22;25200;53.394;10.414;2023-03-15T03:02:19;3.20;89.70
39519;DHT22;25200;53.394;10.414;2023-03-15T03:04:45;3.20;89.80
39519;DHT22;25200;53.394;10.414;2023-03-15T03:07:10;3.20;89.80
39519;DHT22;25200;53.394;10.414;2023-03-15T03:09:36;3.20;89.80
39519;DHT22;25200;53.394;10.414;2023-03-15T03:12:02;3.20;89.90
39519;DHT22;25200;53.394;10.414;2023-03-15T03:14:28;3.20;89.90
39519;DHT22;25200;53.394;10.414;2023-03-15T03:16:53;3.30;89.90
39519;DHT22;25200;53.394;10.414;2023-03-15T03:19:19;3.30;90.00
39519;DHT22;25200;53.394;10.414;2023-03-15T03:21:50;3.30;89.90
39519;DHT22;25200;53.394;10.414;2023-03-15T03:24:17;3.30;89.80
39519;DHT22;25200;53.394;10.414;2023-03-15T03:26:43;3.30;89.90
39519;DHT22;25200;53.394;10.414;2023-03-15T03:29:13;3.30;90.00
39519;DHT22;25200;53.394;10.414;2023-03-15T03:31:41;3.30;90.00
39519;DHT22;25200;53.394;10.414;2023-03-15T03:34:08;3.30;89.90
39519;DHT22;25200;53.394;10.414;2023-03-15T03:36:35;3.30;90.00
39519;DHT22;25200;53.394;10.414;2023-03-15T03:39:01;3.30;89.90
39519;DHT22;25200;53.394;10.414;2023-03-15T03:41:27;3.30;90.00
39519;DHT22;25200;53.394;10.414;2023-03-15T03:43:53;3.30;89.90
39519;DHT22;25200;53.394;10.414;2023-03-15T03:46:18;3.30;89.90
39519;DHT22;25200;53.394;10.414;2023-03-15T03:48:44;3.30;90.20
39519;DHT22;25200;53.394;10.414;2023-03-15T03:51:10;3.30;90.00
39519;DHT22;25200;53.394;10.414;2023-03-15T03:53:36;3.30;90.00
39519;DHT22;25200;53.394;10.414;2023-03-15T03:56:06;3.30;90.00
39519;DHT22;25200;53.394;10.414;2023-03-15T03:58:33;3.30;90.00
39519;DHT22;25200;53.394;10.414;2023-03-15T04:00:59;3.30;90.00
39519;DHT22;25200;53.394;10.414;2023-03-15T04:03:25;3.30;90.00
39519;DHT22;25200;53.394;10.414;2023-03-15T04:05:54;3.30;90.00
39519;DHT22;25200;53.394;10.414;2023-03-15T04:08:22;3.30;90.00
39519;DHT22;25200;53.394;10.414;2023-03-15T04:10:55;3.30;90.00
39519;DHT22;25200;53.394;10.414;2023-03-15T04:13:22;3.40;90.00
39519;DHT22;25200;53.394;10.414;2023-03-15T04:15:49;3.40;90.00
39519;DHT22;25200;53.394;10.414;2023-03-15T04:18:16;3.40;90.00
39519;DHT22;25200;53.394;10.414;2023-03-15T04:20:42;3.40;90.00
39519;DHT22;25200;53.394;10.414;2023-03-15T04:23:15;3.30;90.00
39519;DHT22;25200;53.394;10.414;2023-03-15T04:25:46;3.40;90.00
39519;DHT22;25200;53.394;10.414;2023-03-15T04:28:12;3.30;90.00
39519;DHT22;25200;53.394;10.414;2023-03-15T04:30:38;3.30;90.00
39519;DHT22;25200;53.394;10.414;2023-03-15T04:33:04;3.30;90.00
39519;DHT22;25200;53.394;10.414;2023-03-15T04:35:34;3.30;90.00
39519;DHT22;25200;53.394;10.414;2023-03-15T04:38:00;3.30;90.00
39519;DHT22;25200;53.394;10.414;2023-03-15T04:40:27;3.30;90.00
39519;DHT22;25200;53.394;10.414;2023-03-15T04:42:53;3.30;90.10
39519;DHT22;25200;53.394;10.414;2023-03-15T04:45:22;3.30;90.10
39519;DHT22;25200;53.394;10.414;2023-03-15T04:47:49;3.30;90.10
39519;DHT22;25200;53.394;10.414;2023-03-15T04:50:15;3.30;90.00
39519;DHT22;25200;53.394;10.414;2023-03-15T04:52:41;3.30;90.10
39519;DHT22;25200;53.394;10.414;2023-03-15T04:55:07;3.30;90.10
39519;DHT22;25200;53.394;10.414;2023-03-15T04:57:33;3.30;90.20
39519;DHT22;25200;53.394;10.414;2023-03-15T04:59:59;3.30;90.10
39519;DHT22;25200;53.394;10.414;2023-03-15T05:02:24;3.30;90.10
39519;DHT22;25200;53.394;10.414;2023-03-15T05:04:50;3.30;90.10
39519;DHT22;25200;53.394;10.414;2023-03-15T05:07:16;3.30;90.10
39519;DHT22;25200;53.394;10.414;2023-03-15T05:09:41;3.30;90.10
39519;DHT22;25200;53.394;10.414;2023-03-15T05:12:11;3.30;90.10
39519;DHT22;25200;53.394;10.414;2023-03-15T05:14:36;3.30;90.10
39519;DHT22;25200;53.394;10.414;2023-03-15T05:17:02;3.30;90.10
39519;DHT22;25200;53.394;10.414;2023-03-15T05:19:28;3.30;90.20
39519;DHT22;25200;53.394;10.414;2023-03-15T05:21:54;3.30;90.20
39519;DHT22;25200;53.394;10.414;2023-03-15T05:24:20;3.20;90.10
39519;DHT22;25200;53.394;10.414;2023-03-15T05:26:46;3.30;90.10
39519;DHT22;25200;53.394;10.414;2023-03-15T05:29:13;3.20;90.20
39519;DHT22;25200;53.394;10.414;2023-03-15T05:31:38;3.20;90.10
39519;DHT22;25200;53.394;10.414;2023-03-15T05:34:05;3.30;90.20
39519;DHT22;25200;53.394;10.414;2023-03-15T05:36:32;3.20;90.20
39519;DHT22;25200;53.394;10.414;2023-03-15T05:38:58;3.20;90.20
39519;DHT22;25200;53.394;10.414;2023-03-15T05:41:24;3.20;90.20
39519;DHT22;25200;53.394;10.414;2023-03-15T05:43:50;3.20;90.20
39519;DHT22;25200;53.394;10.414;2023-03-15T05:46:16;3.20;90.20
39519;DHT22;25200;53.394;10.414;2023-03-15T05:48:42;3.20;90.10
39519;DHT22;25200;53.394;10.414;2023-03-15T05:51:08;3.20;90.20
39519;DHT22;25200;53.394;10.414;2023-03-15T05:53:34;3.20;90.20
39519;DHT22;25200;53.394;10.414;2023-03-15T05:56:00;3.20;90.20
39519;DHT22;25200;53.394;10.414;2023-03-15T05:58:25;3.20;90.30
39519;DHT22;25200;53.394;10.414;2023-03-15T06:00:51;3.20;90.20
39519;DHT22;25200;53.394;10.414;2023-03-15T06:03:17;3.20;90.30
39519;DHT22;25200;53.394;10.414;2023-03-15T06:05:43;3.20;90.30
39519;DHT22;25200;53.394;10.414;2023-03-15T06:08:09;3.20;90.30
39519;DHT22;25200;53.394;10.414;2023-03-15T06:10:34;3.20;90.20
39519;DHT22;25200;53.394;10.414;2023-03-15T06:13:00;3.20;90.30
39519;DHT22;25200;53.394;10.414;2023-03-15T06:15:26;3.20;90.30
39519;DHT22;25200;53.394;10.414;2023-03-15T06:17:52;3.20;90.20
39519;DHT22;25200;53.394;10.414;2023-03-15T06:20:18;3.20;90.30
39519;DHT22;25200;53.394;10.414;2023-03-15T06:22:44;3.20;90.40
39519;DHT22;25200;53.394;10.414;2023-03-15T06:25:10;3.20;90.40
39519;DHT22;25200;53.394;10.414;2023-03-15T06:27:37;3.20;90.30
39519;DHT22;25200;53.394;10.414;2023-03-15T06:30:03;3.20;90.30
39519;DHT22;25200;53.394;10.414;2023-03-15T06:32:29;3.20;90.40
39519;DHT22;25200;53.394;10.414;2023-03-15T06:34:55;3.20;90.40
39519;DHT22;25200;53.394;10.414;2023-03-15T06:37:21;3.20;90.40
39519;DHT22;25200;53.394;10.414;2023-03-15T06:39:47;3.20;90.30
39519;DHT22;25200;53.394;10.414;2023-03-15T06:42:16;3.20;90.40
39519;DHT22;25200;53.394;10.414;2023-03-15T06:44:42;3.20;90.30
39519;DHT22;25200;53.394;10.414;2023-03-15T06:47:09;3.20;90.40
39519;DHT22;25200;53.394;10.414;2023-03-15T06:49:35;3.20;90.30
39519;DHT22;25200;53.394;10.414;2023-03-15T06:52:02;3.20;90.30
39519;DHT22;25200;53.394;10.414;2023-03-15T06:54:28;3.20;90.40
39519;DHT22;25200;53.394;10.414;2023-03-15T06:56:55;3.30;90.40
39519;DHT22;25200;53.394;10.414;2023-03-15T06:59:20;3.20;90.30
39519;DHT22;25200;53.394;10.414;2023-03-15T07:01:46;3.30;90.40
39519;DHT22;25200;53.394;10.414;2023-03-15T07:04:12;3.30;90.40
39519;DHT22;25200;53.394;10.414;2023-03-15T07:06:38;3.30;90.30
39519;DHT22;25200;53.394;10.414;2023-03-15T07:09:04;3.40;90.30
39519;DHT22;25200;53.394;10.414;2023-03-15T07:11:31;3.40;90.40
39519;DHT22;25200;53.394;10.414;2023-03-15T07:13:56;3.40;90.30
39519;DHT22;25200;53.394;10.414;2023-03-15T07:16:23;3.50;90.30
39519;DHT22;25200;53.394;10.414;2023-03-15T07:18:49;3.50;90.30
39519;DHT22;25200;53.394;10.414;2023-03-15T07:21:15;3.50;90.30
39519;DHT22;25200;53.394;10.414;2023-03-15T07:23:41;3.50;90.30
39519;DHT22;25200;53.394;10.414;2023-03-15T07:26:06;3.60;90.30
39519;DHT22;25200;53.394;10.414;2023-03-15T07:28:32;3.60;90.30
39519;DHT22;25200;53.394;10.414;2023-03-15T07:31:00;3.60;90.30
39519;DHT22;25200;53.394;10.414;2023-03-15T07:33:27;3.60;90.30
39519;DHT22;25200;53.394;10.414;2023-03-15T07:35:54;3.60;90.30
39519;DHT22;25200;53.394;10.414;2023-03-15T07:38:22;3.70;90.30
39519;DHT22;25200;53.394;10.414;2023-03-15T07:40:48;3.70;90.30
39519;DHT22;25200;53.394;10.414;2023-03-15T07:43:14;3.80;90.30
39519;DHT22;25200;53.394;10.414;2023-03-15T07:45:39;3.80;90.30
39519;DHT22;25200;53.394;10.414;2023-03-15T07:48:06;3.80;90.30
39519;DHT22;25200;53.394;10.414;2023-03-15T07:50:31;3.90;90.30
39519;DHT22;25200;53.394;10.414;2023-03-15T07:52:57;4.00;90.30
39519;DHT22;25200;53.394;10.414;2023-03-15T07:55:23;4.00;90.30
39519;DHT22;25200;53.394;10.414;2023-03-15T07:57:50;4.00;90.20
39519;DHT22;25200;53.394;10.414;2023-03-15T08:00:16;4.10;90.20
39519;DHT22;25200;53.394;10.414;2023-03-15T08:02:42;4.20;90.20
39519;DHT22;25200;53.394;10.414;2023-03-15T08:05:09;4.30;90.20
39519;DHT22;25200;53.394;10.414;2023-03-15T08:07:35;4.30;90.20
39519;DHT22;25200;53.394;10.414;2023-03-15T08:10:02;4.40;90.20
39519;DHT22;25200;53.394;10.414;2023-03-15T08:12:28;4.40;90.10
39519;DHT22;25200;53.394;10.414;2023-03-15T08:14:55;4.30;90.10
39519;DHT22;25200;53.394;10.414;2023-03-15T08:17:21;4.30;90.10
39519;DHT22;25200;53.394;10.414;2023-03-15T08:19:46;4.30;90.10
39519;DHT22;25200;53.394;10.414;2023-03-15T08:22:12;4.20;90.10
39519;DHT22;25200;53.394;10.414;2023-03-15T08:24:38;4.20;90.10
39519;DHT22;25200;53.394;10.414;2023-03-15T08:27:04;4.10;90.10
39519;DHT22;25200;53.394;10.414;2023-03-15T08:29:30;4.10;90.20
39519;DHT22;25200;53.394;10.414;2023-03-15T08:31:56;4.00;90.20
39519;DHT22;25200;53.394;10.414;2023-03-15T08:34:22;3.90;90.20
39519;DHT22;25200;53.394;10.414;2023-03-15T08:36:48;3.90;90.30
39519;DHT22;25200;53.394;10.414;2023-03-15T08:39:14;3.90;90.40
39519;DHT22;25200;53.394;10.414;2023-03-15T08:41:40;3.90;90.30
39519;DHT22;25200;53.394;10.414;2023-03-15T08:44:06;3.90;90.40
39519;DHT22;25200;53.394;10.414;2023-03-15T08:46:32;3.90;90.40
39519;DHT22;25200;53.394;10.414;2023-03-15T08:48:58;3.90;90.40
39519;DHT22;25200;53.394;10.414;2023-03-15T08:51:24;3.90;90.40
39519;DHT22;25200;53.394;10.414;2023-03-15T08:53:51;3.90;90.40
39519;DHT22;25200;53.394;10.414;2023-03-15T08:56:16;4.00;90.40
39519;DHT22;25200;53.394;10.414;2023-03-15T08:58:42;4.00;90.50
39519;DHT22;25200;53.394;10.414;2023-03-15T09:01:10;4.00;90.40
39519;DHT22;25200;53.394;10.414;2023-03-15T09:03:36;4.00;90.40
39519;DHT22;25200;53.394;10.414;2023-03-15T09:06:02;4.10;90.50
39519;DHT22;25200;53.394;10.414;2023-03-15T09:08:28;4.10;90.50
39519;DHT22;25200;53.394;10.414;2023-03-15T09:10:56;4.20;90.50
39519;DHT22;25200;53.394;10.414;2023-03-15T09:13:23;4.30;90.50
39519;DHT22;25200;53.394;10.414;2023-03-15T09:15:50;4.30;90.40
39519;DHT22;25200;53.394;10.414;2023-03-15T09:18:16;4.50;90.50
39519;DHT22;25200;53.394;10.414;2023-03-15T09:20:42;4.50;90.40
39519;DHT22;25200;53.394;10.414;2023-03-15T09:23:07;4.60;90.50
39519;DHT22;25200;53.394;10.414;2023-03-15T09:25:33;4.60;90.40
39519;DHT22;25200;53.394;10.414;2023-03-15T09:28:02;4.70;90.40
39519;DHT22;25200;53.394;10.414;2023-03-15T09:30:28;4.70;90.40
39519;DHT22;25200;53.394;10.414;2023-03-15T09:32:53;4.80;90.50
39519;DHT22;25200;53.394;10.414;2023-03-15T09:35:19;4.90;90.40
39519;DHT22;25200;53.394;10.414;2023-03-15T09:37:46;4.90;90.40
39519;DHT22;25200;53.394;10.414;2023-03-15T09:40:25;5.00;90.40
39519;DHT22;25200;53.394;10.414;2023-03-15T09:50:53;5.40;90.30
39519;DHT22;25200;53.394;10.414;2023-03-15T09:53:31;5.50;90.30
39519;DHT22;25200;53.394;10.414;2023-03-15T09:55:58;5.60;90.30
39519;DHT22;25200;53.394;10.414;2023-03-15T09:58:27;5.70;90.40
39519;DHT22;25200;53.394;10.414;2023-03-15T10:01:05;5.90;90.40
39519;DHT22;25200;53.394;10.414;2023-03-15T10:03:47;6.10;90.40
39519;DHT22;25200;53.394;10.414;2023-03-15T10:06:19;6.10;90.20
39519;DHT22;25200;53.394;10.414;2023-03-15T10:08:46;6.20;90.10
39519;DHT22;25200;53.394;10.414;2023-03-15T10:11:13;6.20;90.10
39519;DHT22;25200;53.394;10.414;2023-03-15T10:19:01;6.30;90.20
39519;DHT22;25200;53.394;10.414;2023-03-15T10:23:55;6.50;90.20
39519;DHT22;25200;53.394;10.414;2023-03-15T10:26:33;6.60;90.20
39519;DHT22;25200;53.394;10.414;2023-03-15T10:29:02;6.80;90.20
39519;DHT22;25200;53.394;10.414;2023-03-15T10:31:35;6.90;90.20
39519;DHT22;25200;53.394;10.414;2023-03-15T10:34:02;7.00;90.10
39519;DHT22;25200;53.394;10.414;2023-03-15T10:36:28;7.20;90.10
39519;DHT22;25200;53.394;10.414;2023-03-15T10:38:53;7.30;90.20
39519;DHT22;25200;53.394;10.414;2023-03-15T10:41:39;7.50;90.10
39519;DHT22;25200;53.394;10.414;2023-03-15T10:44:25;7.60;89.60
39519;DHT22;25200;53.394;10.414;2023-03-15T10:49:36;7.90;89.70
39519;DHT22;25200;53.394;10.414;2023-03-15T10:52:02;8.10;89.60
39519;DHT22;25200;53.394;10.414;2023-03-15T10:54:31;8.30;89.80
39519;DHT22;25200;53.394;10.414;2023-03-15T10:57:11;8.40;89.20
39519;DHT22;25200;53.394;10.414;2023-03-15T10:59:37;8.40;88.90
39519;DHT22;25200;53.394;10.414;2023-03-15T11:04:43;8.10;88.30
39519;DHT22;25200;53.394;10.414;2023-03-15T11:07:11;7.90;88.20
39519;DHT22;25200;53.394;10.414;2023-03-15T11:09:39;7.70;88.10
39519;DHT22;25200;53.394;10.414;2023-03-15T11:12:07;7.50;88.20
39519;DHT22;25200;53.394;10.414;2023-03-15T11:14:39;7.30;88.40
39519;DHT22;25200;53.394;10.414;2023-03-15T11:17:07;7.20;89.20
39519;DHT22;25200;53.394;10.414;2023-03-15T11:19:39;7.20;90.00
39519;DHT22;25200;53.394;10.414;2023-03-15T11:22:10;7.40;90.20
39519;DHT22;25200;53.394;10.414;2023-03-15T11:24:36;7.50;90.20
39519;DHT22;25200;53.394;10.414;2023-03-15T11:27:10;7.70;90.10
39519;DHT22;25200;53.394;10.414;2023-03-15T11:29:37;7.80;90.00
39519;DHT22;25200;53.394;10.414;2023-03-15T11:32:34;7.80;89.80
39519;DHT22;25200;53.394;10.414;2023-03-15T11:35:06;7.90;89.60
39519;DHT22;25200;53.394;10.414;2023-03-15T11:37:46;8.00;89.60
39519;DHT22;25200;53.394;10.414;2023-03-15T11:40:27;8.10;89.50
39519;DHT22;25200;53.394;10.414;2023-03-15T11:45:42;8.30;89.30
39519;DHT22;25200;53.394;10.414;2023-03-15T11:48:30;8.30;89.00
39519;DHT22;25200;53.394;10.414;2023-03-15T11:51:00;8.30;88.70
39519;DHT22;25200;53.394;10.414;2023-03-15T11:53:33;8.30;89.20
39519;DHT22;25200;53.394;10.414;2023-03-15T11:59:07;8.50;89.00
39519;DHT22;25200;53.394;10.414;2023-03-15T12:01:35;8.60;89.00
39519;DHT22;25200;53.394;10.414;2023-03-15T12:07:04;8.80;88.90
39519;DHT22;25200;53.394;10.414;2023-03-15T12:17:54;9.00;87.80
39519;DHT22;25200;53.394;10.414;2023-03-15T12:28:37;9.00;87.80
39519;DHT22;25200;53.394;10.414;2023-03-15T12:31:05;8.80;85.30
39519;DHT22;25200;53.394;10.414;2023-03-15T12:33:32;8.40;86.10
39519;DHT22;25200;53.394;10.414;2023-03-15T12:36:08;8.10;86.70
39519;DHT22;25200;53.394;10.414;2023-03-15T12:38:38;7.90;87.30
39519;DHT22;25200;53.394;10.414;2023-03-15T12:41:31;7.70;87.40
39519;DHT22;25200;53.394;10.414;2023-03-15T12:49:40;7.20;88.30
39519;DHT22;25200;53.394;10.414;2023-03-15T12:54:49;7.00;88.50
39519;DHT22;25200;53.394;10.414;2023-03-15T12:57:38;6.90;88.60
39519;DHT22;25200;53.394;10.414;2023-03-15T13:00:15;6.80;88.70
39519;DHT22;25200;53.394;10.414;2023-03-15T13:03:04;6.80;89.10
39519;DHT22;25200;53.394;10.414;2023-03-15T13:08:42;6.80;89.10
39519;DHT22;25200;53.394;10.414;2023-03-15T13:11:25;6.70;89.20
39519;DHT22;25200;53.394;10.414;2023-03-15T13:14:04;6.70;89.20
39519;DHT22;25200;53.394;10.414;2023-03-15T13:16:43;6.70;89.20
39519;DHT22;25200;53.394;10.414;2023-03-15T13:19:25;6.70;89.30
39519;DHT22;25200;53.394;10.414;2023-03-15T13:27:41;6.80;89.60
39519;DHT22;25200;53.394;10.414;2023-03-15T13:30:30;6.90;89.80
39519;DHT22;25200;53.394;10.414;2023-03-15T13:33:31;7.10;89.90
39519;DHT22;25200;53.394;10.414;2023-03-15T13:36:26;7.20;89.70
39519;DHT22;25200;53.394;10.414;2023-03-15T13:38:55;7.40;89.90
39519;DHT22;25200;53.394;10.414;2023-03-15T13:41:28;7.50;89.70
39519;DHT22;25200;53.394;10.414;2023-03-15T13:43:57;7.70;90.00
39519;DHT22;25200;53.394;10.414;2023-03-15T13:46:28;7.90;90.00
39519;DHT22;25200;53.394;10.414;2023-03-15T13:48:54;8.00;89.80
39519;DHT22;25200;53.394;10.414;2023-03-15T13:51:25;8.20;89.80
39519;DHT22;25200;53.394;10.414;2023-03-15T13:53:59;8.30;89.30
39519;DHT22;25200;53.394;10.414;2023-03-15T13:56:29;8.40;88.90
39519;DHT22;25200;53.394;10.414;2023-03-15T13:58:56;8.40;88.90
39519;DHT22;25200;53.394;10.414;2023-03-15T14:01:23;8.50;89.10
39519;DHT22;25200;53.394;10.414;2023-03-15T14:03:57;8.60;89.50
39519;DHT22;25200;53.394;10.414;2023-03-15T14:06:25;8.70;89.30
39519;DHT22;25200;53.394;10.414;2023-03-15T14:08:53;8.80;88.70
39519;DHT22;25200;53.394;10.414;2023-03-15T14:13:51;8.80;88.30
39519;DHT22;25200;53.394;10.414;2023-03-15T14:16:41;8.80;88.50
39519;DHT22;25200;53.394;10.414;2023-03-15T14:19:16;8.80;88.70
39519;DHT22;25200;53.394;10.414;2023-03-15T14:22:03;8.80;88.50
39519;DHT22;25200;53.394;10.414;2023-03-15T14:24:38;8.80;88.60
39519;DHT22;25200;53.394;10.414;2023-03-15T14:27:16;8.80;88.80
39519;DHT22;25200;53.394;10.414;2023-03-15T14:30:02;8.80;89.40
39519;DHT22;25200;53.394;10.414;2023-03-15T14:32:32;8.80;89.40
39519;DHT22;25200;53.394;10.414;2023-03-15T14:35:01;8.90;89.00
39519;DHT22;25200;53.394;10.414;2023-03-15T14:37:41;8.90;89.00
39519;DHT22;25200;53.394;10.414;2023-03-15T14:40:27;9.00;89.40
39519;DHT22;25200;53.394;10.414;2023-03-15T14:42:53;9.10;89.20
39519;DHT22;25200;53.394;10.414;2023-03-15T14:45:19;9.20;88.80
39519;DHT22;25200;53.394;10.414;2023-03-15T14:47:56;9.30;88.30
39519;DHT22;25200;53.394;10.414;2023-03-15T14:50:25;9.20;87.70
39519;DHT22;25200;53.394;10.414;2023-03-15T14:52:51;9.20;87.60
39519;DHT22;25200;53.394;10.414;2023-03-15T14:55:23;9.00;87.40
39519;DHT22;25200;53.394;10.414;2023-03-15T14:57:48;8.90;87.30
39519;DHT22;25200;53.394;10.414;2023-03-15T15:00:16;8.80;87.80
39519;DHT22;25200;53.394;10.414;2023-03-15T15:02:43;8.80;88.30
39519;DHT22;25200;53.394;10.414;2023-03-15T15:05:30;8.80;87.80
39519;DHT22;25200;53.394;10.414;2023-03-15T15:08:02;8.80;87.60
39519;DHT22;25200;53.394;10.414;2023-03-15T15:10:29;8.70;87.40
39519;DHT22;25200;53.394;10.414;2023-03-15T15:12:56;8.50;87.30
39519;DHT22;25200;53.394;10.414;2023-03-15T15:15:21;8.40;86.40
39519;DHT22;25200;53.394;10.414;2023-03-15T15:17:47;8.30;86.90
39519;DHT22;25200;53.394;10.414;2023-03-15T15:20:13;8.20;87.30
39519;DHT22;25200;53.394;10.414;2023-03-15T15:22:41;8.10;87.10
39519;DHT22;25200;53.394;10.414;2023-03-15T15:25:27;8.10;86.90
39519;DHT22;25200;53.394;10.414;2023-03-15T15:27:55;8.00;87.30
39519;DHT22;25200;53.394;10.414;2023-03-15T15:30:23;7.90;87.20
39519;DHT22;25200;53.394;10.414;2023-03-15T15:32:49;7.90;87.60
39519;DHT22;25200;53.394;10.414;2023-03-15T15:35:17;7.80;87.40
39519;DHT22;25200;53.394;10.414;2023-03-15T15:37:45;7.80;87.30
39519;DHT22;25200;53.394;10.414;2023-03-15T15:40:27;7.70;87.60
39519;DHT22;25200;53.394;10.414;2023-03-15T15:42:53;7.70;87.40
39519;DHT22;25200;53.394;10.414;2023-03-15T15:45:19;7.60;87.60
39519;DHT22;25200;53.394;10.414;2023-03-15T15:47:45;7.60;87.60
39519;DHT22;25200;53.394;10.414;2023-03-15T15:50:14;7.50;87.80
39519;DHT22;25200;53.394;10.414;2023-03-15T15:52:43;7.50;87.70
39519;DHT22;25200;53.394;10.414;2023-03-15T15:55:20;7.40;87.80
39519;DHT22;25200;53.394;10.414;2023-03-15T15:57:49;7.40;88.10
39519;DHT22;25200;53.394;10.414;2023-03-15T16:00:18;7.40;88.10
39519;DHT22;25200;53.394;10.414;2023-03-15T16:02:47;7.40;88.30
39519;DHT22;25200;53.394;10.414;2023-03-15T16:05:17;7.30;88.20
39519;DHT22;25200;53.394;10.414;2023-03-15T16:07:46;7.30;88.20
39519;DHT22;25200;53.394;10.414;2023-03-15T16:10:20;7.30;88.30
39519;DHT22;25200;53.394;10.414;2023-03-15T16:12:47;7.20;88.20
39519;DHT22;25200;53.394;10.414;2023-03-15T16:15:15;7.20;88.60
39519;DHT22;25200;53.394;10.414;2023-03-15T16:17:42;7.20;88.40
39519;DHT22;25200;53.394;10.414;2023-03-15T16:20:09;7.20;88.60
39519;DHT22;25200;53.394;10.414;2023-03-15T16:22:41;7.10;88.60
39519;DHT22;25200;53.394;10.414;2023-03-15T16:25:13;7.10;88.70
39519;DHT22;25200;53.394;10.414;2023-03-15T16:27:40;7.10;88.60
39519;DHT22;25200;53.394;10.414;2023-03-15T16:30:06;7.10;88.60
39519;DHT22;25200;53.394;10.414;2023-03-15T16:32:35;7.10;88.60
39519;DHT22;25200;53.394;10.414;2023-03-15T16:35:00;7.10;88.80
39519;DHT22;25200;53.394;10.414;2023-03-15T16:37:29;7.10;88.90
39519;DHT22;25200;53.394;10.414;2023-03-15T16:39:56;7.00;88.80
39519;DHT22;25200;53.394;10.414;2023-03-15T16:42:24;7.10;88.90
39519;DHT22;25200;53.394;10.414;2023-03-15T16:44:50;7.00;88.80
39519;DHT22;25200;53.394;10.414;2023-03-15T16:47:17;7.00;88.80
39519;DHT22;25200;53.394;10.414;2023-03-15T16:49:43;7.00;88.00
39519;DHT22;25200;53.394;10.414;2023-03-15T16:52:10;7.00;88.50
39519;DHT22;25200;53.394;10.414;2023-03-15T16:54:36;6.90;88.60
39519;DHT22;25200;53.394;10.414;2023-03-15T16:57:03;6.90;88.50